DAUU/OGX METAR and TAF weather

Enter ICAO airport designator
Station Type Date Time Source
DAUU METAR 2019/08/22 02:00 UTC NOAA

DAUU 220200Z 35010KT CAVOK 30/16 Q1012


Station Type Date Time Source
DAUU Decoded METAR 2019/08/22 02:00 UTC NOAA

Station name not available
Aug 21, 2019 - 10:00 PM EDT / 2019.08.22 0200 UTC
Wind: from the N (350 degrees) at 12 MPH (10 KT):0
Visibility: greater than 7 mile(s):0
Temperature: 86 F (30 C)
Dew Point: 60 F (16 C)
Relative Humidity: 42%
Pressure (altimeter): 29.88 in. Hg (1012 hPa)
ob: DAUU 220200Z 35010KT CAVOK 30/16 Q1012
cycle: 2

Station Type Date Time Source
DAUU TAF 2017/11/09 18:03 UTC NOAA

TAF DAUU 091700Z 0918/1009 34012KT 9999 FEW040 SCT100 PROB40
TEMPO 0918/0924 34015G25KT 5000 -TSRA FEW036CB

Example: see airport list